sensor_id;sensor_type;location;lat;lon;timestamp;P1;durP1;ratioP1;P2;durP2;ratioP2
48263;SDS011;34086;51.076;13.722;2023-02-18T00:00:40;6.38;;;2.67;;
48263;SDS011;34086;51.076;13.722;2023-02-18T00:01:41;8.18;;;2.42;;
48263;SDS011;34086;51.076;13.722;2023-02-18T00:02:42;7.57;;;2.65;;
48263;SDS011;34086;51.076;13.722;2023-02-18T00:03:43;5.32;;;2.50;;
48263;SDS011;34086;51.076;13.722;2023-02-18T00:04:44;6.15;;;2.58;;
48263;SDS011;34086;51.076;13.722;2023-02-18T00:05:44;6.82;;;2.55;;
48263;SDS011;34086;51.076;13.722;2023-02-18T00:06:45;6.32;;;2.45;;
48263;SDS011;34086;51.076;13.722;2023-02-18T00:07:45;6.82;;;2.60;;
48263;SDS011;34086;51.076;13.722;2023-02-18T00:08:46;5.32;;;2.25;;
48263;SDS011;34086;51.076;13.722;2023-02-18T00:09:47;7.82;;;2.60;;
48263;SDS011;34086;51.076;13.722;2023-02-18T00:10:47;5.93;;;2.45;;
48263;SDS011;34086;51.076;13.722;2023-02-18T00:11:48;6.22;;;2.45;;
48263;SDS011;34086;51.076;13.722;2023-02-18T00:12:48;6.32;;;2.47;;
48263;SDS011;34086;51.076;13.722;2023-02-18T00:13:50;5.40;;;2.33;;
48263;SDS011;34086;51.076;13.722;2023-02-18T00:14:55;6.43;;;2.30;;
48263;SDS011;34086;51.076;13.722;2023-02-18T00:15:59;6.35;;;2.33;;
48263;SDS011;34086;51.076;13.722;2023-02-18T00:17:03;6.75;;;2.40;;
48263;SDS011;34086;51.076;13.722;2023-02-18T00:18:04;6.90;;;2.47;;
48263;SDS011;34086;51.076;13.722;2023-02-18T00:19:06;6.00;;;2.50;;
48263;SDS011;34086;51.076;13.722;2023-02-18T00:20:10;6.05;;;2.45;;
48263;SDS011;34086;51.076;13.722;2023-02-18T00:21:11;7.47;;;2.63;;
48263;SDS011;34086;51.076;13.722;2023-02-18T00:22:11;6.85;;;2.90;;
48263;SDS011;34086;51.076;13.722;2023-02-18T00:23:12;5.55;;;2.20;;
48263;SDS011;34086;51.076;13.722;2023-02-18T00:24:13;7.97;;;2.60;;
48263;SDS011;34086;51.076;13.722;2023-02-18T00:25:14;4.18;;;2.08;;
48263;SDS011;34086;51.076;13.722;2023-02-18T00:26:16;4.65;;;2.38;;
48263;SDS011;34086;51.076;13.722;2023-02-18T00:27:18;7.57;;;2.20;;
48263;SDS011;34086;51.076;13.722;2023-02-18T00:28:18;5.38;;;2.22;;
48263;SDS011;34086;51.076;13.722;2023-02-18T00:29:19;6.75;;;2.30;;
48263;SDS011;34086;51.076;13.722;2023-02-18T00:30:21;5.35;;;2.17;;
48263;SDS011;34086;51.076;13.722;2023-02-18T00:31:23;4.97;;;2.03;;
48263;SDS011;34086;51.076;13.722;2023-02-18T00:32:29;5.45;;;2.53;;
48263;SDS011;34086;51.076;13.722;2023-02-18T00:33:29;4.70;;;1.90;;
48263;SDS011;34086;51.076;13.722;2023-02-18T00:34:32;7.57;;;2.47;;
48263;SDS011;34086;51.076;13.722;2023-02-18T00:35:36;6.18;;;2.20;;
48263;SDS011;34086;51.076;13.722;2023-02-18T00:36:37;4.80;;;2.17;;
48263;SDS011;34086;51.076;13.722;2023-02-18T00:37:38;4.00;;;2.00;;
48263;SDS011;34086;51.076;13.722;2023-02-18T00:38:42;6.10;;;2.17;;
48263;SDS011;34086;51.076;13.722;2023-02-18T00:39:44;6.70;;;2.20;;
48263;SDS011;34086;51.076;13.722;2023-02-18T00:40:46;4.78;;;2.17;;
48263;SDS011;34086;51.076;13.722;2023-02-18T00:41:48;7.35;;;2.25;;
48263;SDS011;34086;51.076;13.722;2023-02-18T00:42:48;7.47;;;2.30;;
48263;SDS011;34086;51.076;13.722;2023-02-18T00:43:49;7.45;;;2.00;;
48263;SDS011;34086;51.076;13.722;2023-02-18T00:44:52;4.95;;;2.13;;
48263;SDS011;34086;51.076;13.722;2023-02-18T00:45:54;5.72;;;2.20;;
48263;SDS011;34086;51.076;13.722;2023-02-18T00:46:55;5.32;;;2.13;;
48263;SDS011;34086;51.076;13.722;2023-02-18T00:47:55;7.05;;;2.35;;
48263;SDS011;34086;51.076;13.722;2023-02-18T00:48:56;5.28;;;2.05;;
48263;SDS011;34086;51.076;13.722;2023-02-18T00:49:57;6.10;;;2.20;;
48263;SDS011;34086;51.076;13.722;2023-02-18T00:50:58;6.38;;;2.30;;
48263;SDS011;34086;51.076;13.722;2023-02-18T00:51:59;7.72;;;2.40;;
48263;SDS011;34086;51.076;13.722;2023-02-18T00:53:00;6.40;;;2.28;;
48263;SDS011;34086;51.076;13.722;2023-02-18T00:54:01;6.25;;;2.08;;
48263;SDS011;34086;51.076;13.722;2023-02-18T00:55:01;4.47;;;1.95;;
48263;SDS011;34086;51.076;13.722;2023-02-18T00:56:02;5.85;;;2.22;;
48263;SDS011;34086;51.076;13.722;2023-02-18T00:57:03;5.45;;;2.17;;
48263;SDS011;34086;51.076;13.722;2023-02-18T00:58:03;5.88;;;2.45;;
48263;SDS011;34086;51.076;13.722;2023-02-18T00:59:05;8.55;;;2.40;;
48263;SDS011;34086;51.076;13.722;2023-02-18T01:00:06;4.95;;;2.10;;
48263;SDS011;34086;51.076;13.722;2023-02-18T01:01:08;5.10;;;2.20;;
48263;SDS011;34086;51.076;13.722;2023-02-18T01:02:09;5.35;;;2.28;;
48263;SDS011;34086;51.076;13.722;2023-02-18T01:03:11;5.50;;;2.30;;
48263;SDS011;34086;51.076;13.722;2023-02-18T01:04:11;6.38;;;2.20;;
48263;SDS011;34086;51.076;13.722;2023-02-18T01:05:12;6.28;;;2.25;;
48263;SDS011;34086;51.076;13.722;2023-02-18T01:06:12;5.57;;;2.25;;
48263;SDS011;34086;51.076;13.722;2023-02-18T01:07:13;6.30;;;2.20;;
48263;SDS011;34086;51.076;13.722;2023-02-18T01:08:14;6.25;;;2.65;;
48263;SDS011;34086;51.076;13.722;2023-02-18T01:09:15;7.28;;;2.50;;
48263;SDS011;34086;51.076;13.722;2023-02-18T01:10:17;6.50;;;2.20;;
48263;SDS011;34086;51.076;13.722;2023-02-18T01:11:18;5.97;;;2.70;;
48263;SDS011;34086;51.076;13.722;2023-02-18T01:12:19;8.57;;;2.55;;
48263;SDS011;34086;51.076;13.722;2023-02-18T01:13:21;6.15;;;2.60;;
48263;SDS011;34086;51.076;13.722;2023-02-18T01:14:22;6.88;;;2.72;;
48263;SDS011;34086;51.076;13.722;2023-02-18T01:15:23;5.50;;;2.50;;
48263;SDS011;34086;51.076;13.722;2023-02-18T01:16:24;6.47;;;2.60;;
48263;SDS011;34086;51.076;13.722;2023-02-18T01:17:25;4.63;;;2.58;;
48263;SDS011;34086;51.076;13.722;2023-02-18T01:18:25;4.47;;;2.22;;
48263;SDS011;34086;51.076;13.722;2023-02-18T01:19:26;5.82;;;2.60;;
48263;SDS011;34086;51.076;13.722;2023-02-18T01:20:27;7.43;;;2.40;;
48263;SDS011;34086;51.076;13.722;2023-02-18T01:21:27;8.05;;;2.38;;
48263;SDS011;34086;51.076;13.722;2023-02-18T01:22:29;6.72;;;2.10;;
48263;SDS011;34086;51.076;13.722;2023-02-18T01:23:30;5.80;;;2.40;;
48263;SDS011;34086;51.076;13.722;2023-02-18T01:24:30;7.40;;;2.72;;
48263;SDS011;34086;51.076;13.722;2023-02-18T01:25:31;5.32;;;2.50;;
48263;SDS011;34086;51.076;13.722;2023-02-18T01:26:34;6.90;;;2.47;;
48263;SDS011;34086;51.076;13.722;2023-02-18T01:27:35;7.35;;;2.20;;
48263;SDS011;34086;51.076;13.722;2023-02-18T01:28:36;5.82;;;2.40;;
48263;SDS011;34086;51.076;13.722;2023-02-18T01:29:39;6.63;;;2.17;;
48263;SDS011;34086;51.076;13.722;2023-02-18T01:30:40;8.38;;;2.28;;
48263;SDS011;34086;51.076;13.722;2023-02-18T01:31:41;7.88;;;2.47;;
48263;SDS011;34086;51.076;13.722;2023-02-18T01:32:41;6.32;;;2.10;;
48263;SDS011;34086;51.076;13.722;2023-02-18T01:33:42;5.85;;;2.25;;
48263;SDS011;34086;51.076;13.722;2023-02-18T01:34:43;6.78;;;2.40;;
48263;SDS011;34086;51.076;13.722;2023-02-18T01:35:43;6.80;;;2.17;;
48263;SDS011;34086;51.076;13.722;2023-02-18T01:36:44;7.45;;;2.28;;
48263;SDS011;34086;51.076;13.722;2023-02-18T01:37:45;7.28;;;2.30;;
48263;SDS011;34086;51.076;13.722;2023-02-18T01:38:46;8.02;;;2.20;;
48263;SDS011;34086;51.076;13.722;2023-02-18T01:39:46;6.45;;;2.40;;
48263;SDS011;34086;51.076;13.722;2023-02-18T01:40:48;6.97;;;2.10;;
48263;SDS011;34086;51.076;13.722;2023-02-18T01:41:51;4.50;;;2.40;;
48263;SDS011;34086;51.076;13.722;2023-02-18T01:42:51;4.63;;;2.10;;
48263;SDS011;34086;51.076;13.722;2023-02-18T01:46:34;5.63;;;2.10;;
48263;SDS011;34086;51.076;13.722;2023-02-18T01:47:35;8.88;;;2.65;;
48263;SDS011;34086;51.076;13.722;2023-02-18T01:48:38;4.57;;;2.20;;
48263;SDS011;34086;51.076;13.722;2023-02-18T01:49:42;4.97;;;2.20;;
48263;SDS011;34086;51.076;13.722;2023-02-18T01:50:46;6.55;;;2.35;;
48263;SDS011;34086;51.076;13.722;2023-02-18T01:51:51;4.35;;;2.17;;
48263;SDS011;34086;51.076;13.722;2023-02-18T01:52:56;3.55;;;1.88;;
48263;SDS011;34086;51.076;13.722;2023-02-18T01:54:13;4.25;;;2.10;;
48263;SDS011;34086;51.076;13.722;2023-02-18T01:55:21;6.43;;;2.30;;
48263;SDS011;34086;51.076;13.722;2023-02-18T01:56:27;5.18;;;2.22;;
48263;SDS011;34086;51.076;13.722;2023-02-18T01:57:30;5.97;;;2.55;;
48263;SDS011;34086;51.076;13.722;2023-02-18T01:58:34;6.35;;;2.35;;
48263;SDS011;34086;51.076;13.722;2023-02-18T01:59:37;6.60;;;2.42;;
48263;SDS011;34086;51.076;13.722;2023-02-18T02:00:41;7.07;;;2.60;;
48263;SDS011;34086;51.076;13.722;2023-02-18T02:01:42;6.57;;;2.58;;
48263;SDS011;34086;51.076;13.722;2023-02-18T02:02:45;5.72;;;2.30;;
48263;SDS011;34086;51.076;13.722;2023-02-18T02:03:46;6.30;;;2.33;;
48263;SDS011;34086;51.076;13.722;2023-02-18T02:04:48;9.02;;;2.70;;
48263;SDS011;34086;51.076;13.722;2023-02-18T02:05:49;6.40;;;2.47;;
48263;SDS011;34086;51.076;13.722;2023-02-18T02:06:50;5.43;;;2.38;;
48263;SDS011;34086;51.076;13.722;2023-02-18T02:07:51;5.82;;;2.33;;
48263;SDS011;34086;51.076;13.722;2023-02-18T02:08:54;6.00;;;2.47;;
48263;SDS011;34086;51.076;13.722;2023-02-18T02:09:57;6.97;;;2.78;;
48263;SDS011;34086;51.076;13.722;2023-02-18T02:12:32;7.93;;;2.85;;
48263;SDS011;34086;51.076;13.722;2023-02-18T02:15:21;7.18;;;2.80;;
48263;SDS011;34086;51.076;13.722;2023-02-18T02:18:00;5.97;;;2.80;;
48263;SDS011;34086;51.076;13.722;2023-02-18T02:21:05;6.13;;;2.90;;
48263;SDS011;34086;51.076;13.722;2023-02-18T02:26:54;8.00;;;2.47;;
48263;SDS011;34086;51.076;13.722;2023-02-18T02:28:17;6.30;;;2.63;;
48263;SDS011;34086;51.076;13.722;2023-02-18T02:32:50;4.95;;;2.47;;
48263;SDS011;34086;51.076;13.722;2023-02-18T02:35:18;5.07;;;2.45;;
48263;SDS011;34086;51.076;13.722;2023-02-18T02:36:42;7.70;;;2.53;;
48263;SDS011;34086;51.076;13.722;2023-02-18T02:39:16;7.35;;;2.60;;
48263;SDS011;34086;51.076;13.722;2023-02-18T02:40:29;7.80;;;2.10;;
48263;SDS011;34086;51.076;13.722;2023-02-18T02:42:03;9.20;;;2.50;;
48263;SDS011;34086;51.076;13.722;2023-02-18T02:44:28;7.60;;;2.35;;
48263;SDS011;34086;51.076;13.722;2023-02-18T02:45:53;6.28;;;2.25;;
48263;SDS011;34086;51.076;13.722;2023-02-18T02:46:56;6.65;;;2.10;;
48263;SDS011;34086;51.076;13.722;2023-02-18T02:48:23;7.43;;;2.22;;
48263;SDS011;34086;51.076;13.722;2023-02-18T02:49:50;6.28;;;2.03;;
48263;SDS011;34086;51.076;13.722;2023-02-18T02:52:12;6.18;;;2.20;;
48263;SDS011;34086;51.076;13.722;2023-02-18T02:53:25;9.75;;;2.35;;
48263;SDS011;34086;51.076;13.722;2023-02-18T02:54:28;7.10;;;2.30;;
48263;SDS011;34086;51.076;13.722;2023-02-18T02:55:30;8.00;;;2.30;;
48263;SDS011;34086;51.076;13.722;2023-02-18T02:56:31;7.60;;;2.10;;
48263;SDS011;34086;51.076;13.722;2023-02-18T02:57:41;7.50;;;2.20;;
48263;SDS011;34086;51.076;13.722;2023-02-18T03:00:06;9.32;;;2.30;;
48263;SDS011;34086;51.076;13.722;2023-02-18T03:01:19;7.63;;;2.10;;
48263;SDS011;34086;51.076;13.722;2023-02-18T03:07:54;9.32;;;2.03;;
48263;SDS011;34086;51.076;13.722;2023-02-18T03:11:03;7.15;;;2.00;;
48263;SDS011;34086;51.076;13.722;2023-02-18T03:13:25;4.93;;;1.90;;
48263;SDS011;34086;51.076;13.722;2023-02-18T03:15:07;7.57;;;1.92;;
48263;SDS011;34086;51.076;13.722;2023-02-18T03:16:25;7.30;;;2.00;;
48263;SDS011;34086;51.076;13.722;2023-02-18T03:18:02;7.32;;;1.90;;
48263;SDS011;34086;51.076;13.722;2023-02-18T03:19:20;5.65;;;1.75;;
48263;SDS011;34086;51.076;13.722;2023-02-18T03:20:26;6.80;;;2.00;;
48263;SDS011;34086;51.076;13.722;2023-02-18T03:22:56;6.90;;;1.95;;
48263;SDS011;34086;51.076;13.722;2023-02-18T03:24:01;8.07;;;2.00;;
48263;SDS011;34086;51.076;13.722;2023-02-18T03:25:06;6.47;;;1.80;;
48263;SDS011;34086;51.076;13.722;2023-02-18T03:26:09;6.05;;;2.10;;
48263;SDS011;34086;51.076;13.722;2023-02-18T03:27:13;8.73;;;2.00;;
48263;SDS011;34086;51.076;13.722;2023-02-18T03:28:20;8.07;;;2.00;;
48263;SDS011;34086;51.076;13.722;2023-02-18T03:29:23;6.40;;;1.92;;
48263;SDS011;34086;51.076;13.722;2023-02-18T03:30:34;10.10;;;2.28;;
48263;SDS011;34086;51.076;13.722;2023-02-18T03:31:38;7.93;;;2.00;;
48263;SDS011;34086;51.076;13.722;2023-02-18T03:32:42;5.88;;;2.00;;
48263;SDS011;34086;51.076;13.722;2023-02-18T03:33:50;7.60;;;2.20;;
48263;SDS011;34086;51.076;13.722;2023-02-18T03:35:02;7.57;;;2.00;;
48263;SDS011;34086;51.076;13.722;2023-02-18T03:36:07;8.60;;;2.13;;
48263;SDS011;34086;51.076;13.722;2023-02-18T03:37:10;10.25;;;2.20;;
48263;SDS011;34086;51.076;13.722;2023-02-18T03:38:21;7.35;;;2.10;;
48263;SDS011;34086;51.076;13.722;2023-02-18T03:39:47;9.25;;;2.13;;
48263;SDS011;34086;51.076;13.722;2023-02-18T03:40:50;6.53;;;2.03;;
48263;SDS011;34086;51.076;13.722;2023-02-18T03:41:51;6.65;;;2.10;;
48263;SDS011;34086;51.076;13.722;2023-02-18T03:42:52;10.07;;;2.47;;
48263;SDS011;34086;51.076;13.722;2023-02-18T03:43:54;6.53;;;1.90;;
48263;SDS011;34086;51.076;13.722;2023-02-18T03:45:01;8.20;;;2.08;;
48263;SDS011;34086;51.076;13.722;2023-02-18T03:46:02;9.02;;;2.13;;
48263;SDS011;34086;51.076;13.722;2023-02-18T03:47:03;8.13;;;2.25;;
48263;SDS011;34086;51.076;13.722;2023-02-18T03:48:03;9.57;;;2.20;;
48263;SDS011;34086;51.076;13.722;2023-02-18T03:49:04;8.60;;;2.25;;
48263;SDS011;34086;51.076;13.722;2023-02-18T03:50:05;9.45;;;2.10;;
48263;SDS011;34086;51.076;13.722;2023-02-18T03:51:07;7.75;;;2.08;;
48263;SDS011;34086;51.076;13.722;2023-02-18T03:52:07;6.85;;;2.17;;
48263;SDS011;34086;51.076;13.722;2023-02-18T03:53:08;7.88;;;2.08;;
48263;SDS011;34086;51.076;13.722;2023-02-18T03:54:10;9.77;;;2.45;;
48263;SDS011;34086;51.076;13.722;2023-02-18T03:55:14;8.88;;;2.00;;
48263;SDS011;34086;51.076;13.722;2023-02-18T03:56:14;10.90;;;2.40;;
48263;SDS011;34086;51.076;13.722;2023-02-18T03:57:15;9.98;;;2.30;;
48263;SDS011;34086;51.076;13.722;2023-02-18T03:58:16;6.65;;;2.35;;
48263;SDS011;34086;51.076;13.722;2023-02-18T03:59:16;8.07;;;2.10;;
48263;SDS011;34086;51.076;13.722;2023-02-18T04:00:17;6.47;;;2.20;;
48263;SDS011;34086;51.076;13.722;2023-02-18T04:01:18;7.18;;;2.20;;
48263;SDS011;34086;51.076;13.722;2023-02-18T04:02:18;6.32;;;2.10;;
48263;SDS011;34086;51.076;13.722;2023-02-18T04:03:19;5.97;;;2.13;;
48263;SDS011;34086;51.076;13.722;2023-02-18T04:04:19;7.93;;;2.40;;
48263;SDS011;34086;51.076;13.722;2023-02-18T04:05:20;8.98;;;2.30;;
48263;SDS011;34086;51.076;13.722;2023-02-18T04:06:21;8.88;;;2.65;;
48263;SDS011;34086;51.076;13.722;2023-02-18T04:07:22;7.65;;;2.20;;
48263;SDS011;34086;51.076;13.722;2023-02-18T04:08:23;6.82;;;2.10;;
48263;SDS011;34086;51.076;13.722;2023-02-18T04:09:23;7.85;;;2.20;;
48263;SDS011;34086;51.076;13.722;2023-02-18T04:10:24;6.47;;;1.92;;
48263;SDS011;34086;51.076;13.722;2023-02-18T04:11:24;7.20;;;2.40;;
48263;SDS011;34086;51.076;13.722;2023-02-18T04:12:25;7.93;;;2.20;;
48263;SDS011;34086;51.076;13.722;2023-02-18T04:13:26;7.70;;;2.15;;
48263;SDS011;34086;51.076;13.722;2023-02-18T04:14:27;9.50;;;2.50;;
48263;SDS011;34086;51.076;13.722;2023-02-18T04:15:27;10.20;;;2.47;;
48263;SDS011;34086;51.076;13.722;2023-02-18T04:16:28;5.93;;;2.45;;
48263;SDS011;34086;51.076;13.722;2023-02-18T04:17:28;8.50;;;2.35;;
48263;SDS011;34086;51.076;13.722;2023-02-18T04:18:29;10.50;;;2.60;;
48263;SDS011;34086;51.076;13.722;2023-02-18T04:19:29;9.02;;;2.63;;
48263;SDS011;34086;51.076;13.722;2023-02-18T04:20:30;8.52;;;2.38;;
48263;SDS011;34086;51.076;13.722;2023-02-18T04:21:31;8.52;;;2.42;;
48263;SDS011;34086;51.076;13.722;2023-02-18T04:22:32;9.48;;;2.42;;
48263;SDS011;34086;51.076;13.722;2023-02-18T04:23:32;7.93;;;2.25;;
48263;SDS011;34086;51.076;13.722;2023-02-18T04:24:33;9.68;;;2.65;;
48263;SDS011;34086;51.076;13.722;2023-02-18T04:25:33;7.07;;;2.33;;
48263;SDS011;34086;51.076;13.722;2023-02-18T04:26:34;8.55;;;2.53;;
48263;SDS011;34086;51.076;13.722;2023-02-18T04:27:35;11.13;;;2.70;;
48263;SDS011;34086;51.076;13.722;2023-02-18T04:28:35;9.82;;;2.50;;
48263;SDS011;34086;51.076;13.722;2023-02-18T04:29:36;7.68;;;2.42;;
48263;SDS011;34086;51.076;13.722;2023-02-18T04:30:37;10.77;;;2.90;;
48263;SDS011;34086;51.076;13.722;2023-02-18T04:31:38;8.40;;;3.22;;
48263;SDS011;34086;51.076;13.722;2023-02-18T04:32:38;6.25;;;2.28;;
48263;SDS011;34086;51.076;13.722;2023-02-18T04:33:39;8.90;;;2.65;;
48263;SDS011;34086;51.076;13.722;2023-02-18T04:34:40;8.90;;;2.90;;
48263;SDS011;34086;51.076;13.722;2023-02-18T04:35:40;10.68;;;2.60;;
48263;SDS011;34086;51.076;13.722;2023-02-18T04:36:41;8.98;;;2.70;;
48263;SDS011;34086;51.076;13.722;2023-02-18T04:37:42;10.32;;;3.00;;
48263;SDS011;34086;51.076;13.722;2023-02-18T04:38:42;9.00;;;2.47;;
48263;SDS011;34086;51.076;13.722;2023-02-18T04:39:43;10.48;;;2.92;;
48263;SDS011;34086;51.076;13.722;2023-02-18T04:40:43;7.53;;;2.60;;
48263;SDS011;34086;51.076;13.722;2023-02-18T04:41:44;7.68;;;2.75;;
48263;SDS011;34086;51.076;13.722;2023-02-18T04:42:44;7.50;;;2.63;;
48263;SDS011;34086;51.076;13.722;2023-02-18T04:43:45;7.53;;;2.72;;
48263;SDS011;34086;51.076;13.722;2023-02-18T04:44:45;9.15;;;2.70;;
48263;SDS011;34086;51.076;13.722;2023-02-18T04:45:46;8.07;;;2.55;;
48263;SDS011;34086;51.076;13.722;2023-02-18T04:46:46;7.97;;;2.55;;
48263;SDS011;34086;51.076;13.722;2023-02-18T04:47:47;11.73;;;3.13;;
48263;SDS011;34086;51.076;13.722;2023-02-18T04:48:48;8.23;;;2.53;;
48263;SDS011;34086;51.076;13.722;2023-02-18T04:49:48;7.93;;;2.85;;
48263;SDS011;34086;51.076;13.722;2023-02-18T04:50:49;8.95;;;2.88;;
48263;SDS011;34086;51.076;13.722;2023-02-18T04:51:49;8.82;;;2.70;;
48263;SDS011;34086;51.076;13.722;2023-02-18T04:52:50;10.07;;;2.78;;
48263;SDS011;34086;51.076;13.722;2023-02-18T04:53:51;10.80;;;3.00;;
48263;SDS011;34086;51.076;13.722;2023-02-18T04:54:51;10.73;;;2.95;;
48263;SDS011;34086;51.076;13.722;2023-02-18T04:55:52;10.75;;;2.85;;
48263;SDS011;34086;51.076;13.722;2023-02-18T04:56:53;7.82;;;2.47;;
48263;SDS011;34086;51.076;13.722;2023-02-18T04:57:54;8.77;;;2.88;;
48263;SDS011;34086;51.076;13.722;2023-02-18T04:58:54;8.50;;;2.88;;
48263;SDS011;34086;51.076;13.722;2023-02-18T04:59:55;9.07;;;3.10;;
48263;SDS011;34086;51.076;13.722;2023-02-18T05:01:01;11.65;;;3.80;;
48263;SDS011;34086;51.076;13.722;2023-02-18T05:02:03;10.63;;;3.80;;
48263;SDS011;34086;51.076;13.722;2023-02-18T05:03:04;9.45;;;3.83;;
48263;SDS011;34086;51.076;13.722;2023-02-18T05:04:05;10.35;;;4.00;;
48263;SDS011;34086;51.076;13.722;2023-02-18T05:05:05;10.32;;;3.88;;
48263;SDS011;34086;51.076;13.722;2023-02-18T05:06:06;12.40;;;4.40;;
48263;SDS011;34086;51.076;13.722;2023-02-18T05:07:07;11.48;;;4.18;;
48263;SDS011;34086;51.076;13.722;2023-02-18T05:08:07;8.68;;;4.38;;
48263;SDS011;34086;51.076;13.722;2023-02-18T05:09:08;12.88;;;4.68;;
48263;SDS011;34086;51.076;13.722;2023-02-18T05:10:10;13.27;;;4.70;;
48263;SDS011;34086;51.076;13.722;2023-02-18T05:11:13;11.10;;;4.30;;
48263;SDS011;34086;51.076;13.722;2023-02-18T05:12:14;13.15;;;4.50;;
48263;SDS011;34086;51.076;13.722;2023-02-18T05:13:14;13.48;;;4.97;;
48263;SDS011;34086;51.076;13.722;2023-02-18T05:14:15;10.07;;;4.65;;
48263;SDS011;34086;51.076;13.722;2023-02-18T05:15:15;12.00;;;4.70;;
48263;SDS011;34086;51.076;13.722;2023-02-18T05:16:16;11.70;;;4.50;;
48263;SDS011;34086;51.076;13.722;2023-02-18T05:17:16;15.40;;;4.40;;
48263;SDS011;34086;51.076;13.722;2023-02-18T05:18:17;12.23;;;4.32;;
48263;SDS011;34086;51.076;13.722;2023-02-18T05:19:17;10.93;;;4.40;;
48263;SDS011;34086;51.076;13.722;2023-02-18T05:20:18;13.82;;;4.40;;
48263;SDS011;34086;51.076;13.722;2023-02-18T05:21:18;13.90;;;4.10;;
48263;SDS011;34086;51.076;13.722;2023-02-18T05:22:19;10.40;;;4.38;;
48263;SDS011;34086;51.076;13.722;2023-02-18T05:23:19;12.20;;;4.38;;
48263;SDS011;34086;51.076;13.722;2023-02-18T05:24:20;10.60;;;4.20;;
48263;SDS011;34086;51.076;13.722;2023-02-18T05:25:21;13.05;;;4.38;;
48263;SDS011;34086;51.076;13.722;2023-02-18T05:26:22;11.60;;;4.47;;
48263;SDS011;34086;51.076;13.722;2023-02-18T05:27:22;11.02;;;4.38;;
48263;SDS011;34086;51.076;13.722;2023-02-18T05:28:23;15.93;;;4.22;;
48263;SDS011;34086;51.076;13.722;2023-02-18T05:29:23;12.00;;;4.53;;
48263;SDS011;34086;51.076;13.722;2023-02-18T05:30:24;11.15;;;4.35;;
48263;SDS011;34086;51.076;13.722;2023-02-18T05:31:25;13.18;;;4.43;;
48263;SDS011;34086;51.076;13.722;2023-02-18T05:32:25;12.15;;;4.20;;
48263;SDS011;34086;51.076;13.722;2023-02-18T05:33:26;12.63;;;4.72;;
48263;SDS011;34086;51.076;13.722;2023-02-18T05:34:26;12.93;;;4.60;;
48263;SDS011;34086;51.076;13.722;2023-02-18T05:35:27;11.75;;;4.13;;
48263;SDS011;34086;51.076;13.722;2023-02-18T05:36:27;13.35;;;4.65;;
48263;SDS011;34086;51.076;13.722;2023-02-18T05:37:28;11.23;;;4.40;;
48263;SDS011;34086;51.076;13.722;2023-02-18T05:38:28;14.25;;;4.63;;
48263;SDS011;34086;51.076;13.722;2023-02-18T05:39:29;14.90;;;5.07;;
48263;SDS011;34086;51.076;13.722;2023-02-18T05:40:29;13.15;;;4.55;;
48263;SDS011;34086;51.076;13.722;2023-02-18T05:41:30;14.13;;;4.97;;
48263;SDS011;34086;51.076;13.722;2023-02-18T05:42:31;12.30;;;4.80;;
48263;SDS011;34086;51.076;13.722;2023-02-18T05:43:31;12.45;;;4.53;;
48263;SDS011;34086;51.076;13.722;2023-02-18T05:44:52;12.63;;;4.63;;
48263;SDS011;34086;51.076;13.722;2023-02-18T05:45:53;10.63;;;4.30;;
48263;SDS011;34086;51.076;13.722;2023-02-18T05:46:53;13.43;;;4.43;;
48263;SDS011;34086;51.076;13.722;2023-02-18T05:47:54;12.63;;;4.50;;
48263;SDS011;34086;51.076;13.722;2023-02-18T05:48:54;16.08;;;5.30;;
48263;SDS011;34086;51.076;13.722;2023-02-18T05:49:55;11.40;;;4.78;;
48263;SDS011;34086;51.076;13.722;2023-02-18T05:50:55;9.10;;;4.57;;
48263;SDS011;34086;51.076;13.722;2023-02-18T05:51:56;10.93;;;5.57;;
48263;SDS011;34086;51.076;13.722;2023-02-18T05:52:57;13.02;;;5.15;;
48263;SDS011;34086;51.076;13.722;2023-02-18T05:53:57;13.38;;;5.72;;
48263;SDS011;34086;51.076;13.722;2023-02-18T05:54:58;10.50;;;5.18;;
48263;SDS011;34086;51.076;13.722;2023-02-18T05:55:58;10.05;;;5.15;;
48263;SDS011;34086;51.076;13.722;2023-02-18T05:56:59;11.07;;;5.32;;
48263;SDS011;34086;51.076;13.722;2023-02-18T05:58:00;9.77;;;5.07;;
48263;SDS011;34086;51.076;13.722;2023-02-18T05:59:00;12.10;;;5.53;;
48263;SDS011;34086;51.076;13.722;2023-02-18T06:00:01;10.75;;;4.88;;
48263;SDS011;34086;51.076;13.722;2023-02-18T06:01:04;10.32;;;4.93;;
48263;SDS011;34086;51.076;13.722;2023-02-18T06:02:06;13.55;;;5.75;;
48263;SDS011;34086;51.076;13.722;2023-02-18T06:03:07;12.93;;;5.35;;
48263;SDS011;34086;51.076;13.722;2023-02-18T06:04:08;12.70;;;5.30;;
48263;SDS011;34086;51.076;13.722;2023-02-18T06:05:09;10.38;;;5.45;;
48263;SDS011;34086;51.076;13.722;2023-02-18T06:06:10;8.88;;;4.90;;
48263;SDS011;34086;51.076;13.722;2023-02-18T06:07:11;11.95;;;5.20;;
48263;SDS011;34086;51.076;13.722;2023-02-18T06:08:11;9.85;;;4.80;;
48263;SDS011;34086;51.076;13.722;2023-02-18T06:09:12;13.13;;;4.90;;
48263;SDS011;34086;51.076;13.722;2023-02-18T06:10:12;12.25;;;5.40;;
48263;SDS011;34086;51.076;13.722;2023-02-18T06:11:13;12.50;;;5.72;;
48263;SDS011;34086;51.076;13.722;2023-02-18T06:12:14;14.45;;;5.70;;
48263;SDS011;34086;51.076;13.722;2023-02-18T06:13:14;11.38;;;5.75;;
48263;SDS011;34086;51.076;13.722;2023-02-18T06:14:15;11.73;;;5.97;;
48263;SDS011;34086;51.076;13.722;2023-02-18T06:15:16;13.00;;;5.60;;
48263;SDS011;34086;51.076;13.722;2023-02-18T06:16:16;10.70;;;5.68;;
48263;SDS011;34086;51.076;13.722;2023-02-18T06:17:17;12.75;;;5.85;;
48263;SDS011;34086;51.076;13.722;2023-02-18T06:18:18;10.68;;;5.70;;
48263;SDS011;34086;51.076;13.722;2023-02-18T06:19:18;11.98;;;6.22;;
48263;SDS011;34086;51.076;13.722;2023-02-18T06:20:19;12.55;;;6.30;;
48263;SDS011;34086;51.076;13.722;2023-02-18T06:21:19;11.20;;;5.68;;
48263;SDS011;34086;51.076;13.722;2023-02-18T06:22:20;12.52;;;6.38;;
48263;SDS011;34086;51.076;13.722;2023-02-18T06:23:21;14.20;;;6.80;;
48263;SDS011;34086;51.076;13.722;2023-02-18T06:24:21;13.52;;;6.80;;
48263;SDS011;34086;51.076;13.722;2023-02-18T06:25:22;13.70;;;6.80;;
48263;SDS011;34086;51.076;13.722;2023-02-18T06:26:23;13.25;;;6.22;;
48263;SDS011;34086;51.076;13.722;2023-02-18T06:27:24;12.73;;;6.50;;
48263;SDS011;34086;51.076;13.722;2023-02-18T06:28:24;16.92;;;7.50;;
48263;SDS011;34086;51.076;13.722;2023-02-18T06:29:25;15.73;;;8.05;;
48263;SDS011;34086;51.076;13.722;2023-02-18T06:30:28;13.25;;;6.95;;
48263;SDS011;34086;51.076;13.722;2023-02-18T06:31:29;15.38;;;8.20;;
48263;SDS011;34086;51.076;13.722;2023-02-18T06:32:29;13.93;;;7.85;;
48263;SDS011;34086;51.076;13.722;2023-02-18T06:33:30;16.48;;;8.18;;
48263;SDS011;34086;51.076;13.722;2023-02-18T06:34:31;15.07;;;7.70;;
48263;SDS011;34086;51.076;13.722;2023-02-18T06:35:31;13.77;;;8.00;;
48263;SDS011;34086;51.076;13.722;2023-02-18T06:36:32;15.15;;;8.20;;
48263;SDS011;34086;51.076;13.722;2023-02-18T06:37:33;12.60;;;7.70;;
48263;SDS011;34086;51.076;13.722;2023-02-18T06:38:34;13.02;;;8.70;;
48263;SDS011;34086;51.076;13.722;2023-02-18T06:39:35;16.95;;;9.35;;
48263;SDS011;34086;51.076;13.722;2023-02-18T06:40:35;17.58;;;10.23;;
48263;SDS011;34086;51.076;13.722;2023-02-18T06:41:36;14.43;;;8.75;;
48263;SDS011;34086;51.076;13.722;2023-02-18T06:42:36;15.05;;;9.50;;
48263;SDS011;34086;51.076;13.722;2023-02-18T06:43:37;15.48;;;9.52;;
48263;SDS011;34086;51.076;13.722;2023-02-18T06:44:38;15.02;;;9.35;;